Airfield :
LOGIN :

Register | Disclaimer

   EN    FR    IT 

 










Legend :    VFR   Marginal VFR   IFR   Intensive IFR   Very Intensive IFR
Visi :
Ceiling :
>= 8 km
>= 3000ft
5 to 8 km
1000 to 3000 ft
1500m to 5 km
500 to 1000 ft
800 to 1500m
200 to 500 ft
< 800m
< 200 ft
Symbols :   Thunderstorms  Fog  Heavy snow  Heavy precipitations  Wind > 20 kt
SIGMETs :     Misc.  Thunderstorms  Icing  Turbulence  Mountain Waves  Volcanic Ashes






- Airport Elevation : 138 ft
- IATA code : RLG


ETNL - Rostock Laage

CURRENT METAR :
  • 191348Z 19008KT 8000 -RASN BKN006 OVC010 02/01 Q1001 YLO GRN TEMPO YLO

EXPIRED METARs :
  • 191333Z 19008KT 4500 -SNRA BKN006 OVC010 02/01 Q1001 YLO GRN TEMPO YLO
  • 191320Z 19008KT 9999 -SNRA BKN006 OVC010 02/01 Q1001 YLO GRN TEMPO YLO
  • 191242Z 19008KT 9000 -SNRA BKN006 OVC010 01/01 Q1001 YLO GRN TEMPO YLO
  • 191220Z 19009KT 7000 -SNRA BKN006 OVC010 01/01 Q1002 YLO GRN TEMPO YLO
  • 191131Z 18007KT 7000 -SNRA BKN006 OVC010 01/00 Q1003 YLO GRN TEMPO YLO
  • 191120Z 18007KT 4500 -SN BKN006 OVC010 01/00 Q1003 YLO GRN TEMPO AMB

TAF TAF ETNL
Valid from the 19 at 12:00 until the 19 at 21:00 UTC


191120Z 1912/1921 19007KT 4000 -RADZ BKN007
TEMPO 1912/1921 23010KT 2000 RA BKN004 BY ETGL



MET'MAP, your aeronautical weather chart ! - Copyright ORBIFLY December 2007 - Disclaimer

ORBIFLY MET'MAP TEAM :

Programming & Development : Alexandra Zaïnal
Concept & original design : Baudouin d'Aumeries
Assistance for programming : Marc-Olivier Méhu
Technical & hardware support : Manuel Goepfert

Contact : metmap@orbifly.com




SOURCES & CREDITS :

   NOAA